createdAt,value
2019-02-17T00:00:07.539Z,146.05
2019-02-17T00:02:43.238Z,139.37
2019-02-17T00:05:15.041Z,131.43
2019-02-17T00:07:48.416Z,134.15
2019-02-17T00:10:20.277Z,139.05
2019-02-17T00:12:52.466Z,135.97
2019-02-17T00:15:25.795Z,148.47
2019-02-17T00:18:03.935Z,158.55
2019-02-17T00:20:36.112Z,145.15
2019-02-17T00:23:08.052Z,146.50
2019-02-17T00:25:39.841Z,134.80
2019-02-17T00:28:11.877Z,125.18
2019-02-17T00:30:43.655Z,142.28
2019-02-17T00:33:16.080Z,133.95
2019-02-17T00:35:49.688Z,147.02
2019-02-17T00:38:21.552Z,138.18
2019-02-17T00:40:53.428Z,136.03
2019-02-17T00:43:25.480Z,134.78
2019-02-17T00:45:58.022Z,132.20
2019-02-17T00:48:29.877Z,125.30
2019-02-17T00:51:02.679Z,126.78
2019-02-17T00:53:34.527Z,122.35
2019-02-17T00:56:06.402Z,135.10
2019-02-17T00:58:38.324Z,123.65
2019-02-17T01:01:10.131Z,122.42
2019-02-17T01:03:41.977Z,118.75
2019-02-17T01:06:14.186Z,125.58
2019-02-17T01:08:46.039Z,125.00
2019-02-17T01:11:18.964Z,124.60
2019-02-17T01:13:50.759Z,116.20
2019-02-17T01:16:24.942Z,124.30
2019-02-17T01:18:57.751Z,124.38
2019-02-17T01:21:29.611Z,117.95
2019-02-17T01:24:01.858Z,126.18
2019-02-17T01:26:33.746Z,122.82
2019-02-17T01:29:07.296Z,124.67
2019-02-17T01:31:39.176Z,125.15
2019-02-17T01:34:12.004Z,136.07
2019-02-17T01:36:43.789Z,120.02
2019-02-17T01:39:15.725Z,117.35
2019-02-17T01:41:47.517Z,122.82
2019-02-17T01:44:19.400Z,127.45
2019-02-17T01:46:51.220Z,130.82
2019-02-17T01:49:24.833Z,129.23
2019-02-17T01:51:56.647Z,132.67
2019-02-17T01:54:28.548Z,137.32
2019-02-17T01:57:00.336Z,137.77
2019-02-17T01:59:32.397Z,126.75
2019-02-17T02:02:06.249Z,122.35
2019-02-17T02:04:38.099Z,130.27
2019-02-17T02:07:09.911Z,127.45
2019-02-17T02:09:41.777Z,115.17
2019-02-17T02:12:13.624Z,120.28
2019-02-17T02:14:45.463Z,119.62
2019-02-17T02:17:17.255Z,117.57
2019-02-17T02:19:50.214Z,125.20
2019-02-17T02:22:22.071Z,114.10
2019-02-17T02:24:54.012Z,112.65
2019-02-17T02:27:25.977Z,125.60
2019-02-17T02:29:59.437Z,126.22
2019-02-17T02:32:33.023Z,126.53
2019-02-17T02:35:05.510Z,120.77
2019-02-17T02:37:37.375Z,122.72
2019-02-17T02:40:09.697Z,122.67
2019-02-17T02:42:41.707Z,107.20
2019-02-17T02:45:13.946Z,123.45
2019-02-17T02:47:45.772Z,120.47
2019-02-17T02:50:17.710Z,116.17
2019-02-17T02:52:51.413Z,113.00
2019-02-17T02:55:23.204Z,111.65
2019-02-17T02:57:55.122Z,113.75
2019-02-17T03:00:26.933Z,109.37
2019-02-17T03:02:58.806Z,116.77
2019-02-17T03:05:30.734Z,112.72
2019-02-17T03:08:02.528Z,126.43
2019-02-17T03:10:34.399Z,109.60
2019-02-17T03:13:06.306Z,113.75
2019-02-17T03:15:42.607Z,111.00
2019-02-17T03:18:14.460Z,117.13
2019-02-17T03:20:46.314Z,115.30
2019-02-17T03:23:18.243Z,115.22
2019-02-17T03:25:50.112Z,117.42
2019-02-17T03:28:21.901Z,118.20
2019-02-17T03:30:53.691Z,109.37
2019-02-17T03:33:25.549Z,109.90
2019-02-17T03:35:57.420Z,106.97
2019-02-17T03:38:30.847Z,101.22
2019-02-17T03:41:02.672Z,103.20
2019-02-17T03:43:34.581Z,101.53
2019-02-17T03:46:06.467Z,107.17
2019-02-17T03:48:38.665Z,111.83
2019-02-17T03:51:12.253Z,112.22
2019-02-17T03:53:44.135Z,106.92
2019-02-17T03:56:17.822Z,109.50
2019-02-17T03:58:49.667Z,104.03
2019-02-17T04:01:21.850Z,107.50
2019-02-17T04:03:53.723Z,108.45
2019-02-17T04:06:25.806Z,101.82
2019-02-17T04:08:58.341Z,103.75
2019-02-17T04:11:30.154Z,110.88
2019-02-17T04:14:02.070Z,110.32
2019-02-17T04:16:33.996Z,109.00
2019-02-17T04:19:05.826Z,110.32
2019-02-17T04:21:37.867Z,100.35
2019-02-17T04:24:10.381Z,112.97
2019-02-17T04:26:42.313Z,112.57
2019-02-17T04:29:17.533Z,111.68
2019-02-17T04:31:49.433Z,107.70
2019-02-17T04:34:21.251Z,108.87
2019-02-17T04:36:53.086Z,114.32
2019-02-17T04:39:24.881Z,111.47
2019-02-17T04:41:58.353Z,117.20
2019-02-17T04:44:30.153Z,118.77
2019-02-17T04:47:02.095Z,112.57
2019-02-17T04:49:33.947Z,104.47
2019-02-17T04:52:05.767Z,97.67
2019-02-17T04:54:38.003Z,103.97
2019-02-17T04:57:10.043Z,101.58
2019-02-17T04:59:41.950Z,98.52
2019-02-17T05:02:13.982Z,102.27
2019-02-17T05:04:45.842Z,107.47
2019-02-17T05:07:17.647Z,101.50
2019-02-17T05:09:49.901Z,101.12
2019-02-17T05:12:21.713Z,105.87
2019-02-17T05:14:53.557Z,98.58
2019-02-17T05:17:25.512Z,99.92
2019-02-17T05:19:57.346Z,100.17
2019-02-17T05:22:29.143Z,106.22
2019-02-17T05:25:01.031Z,107.52
2019-02-17T05:27:33.267Z,102.47
2019-02-17T05:30:06.068Z,96.02
2019-02-17T05:32:37.910Z,101.42
2019-02-17T05:35:10.008Z,101.60
2019-02-17T05:37:42.200Z,106.35
2019-02-17T05:40:14.142Z,99.90
2019-02-17T05:42:45.942Z,106.80
2019-02-17T05:45:17.783Z,106.95
2019-02-17T05:47:49.599Z,122.30
2019-02-17T05:50:21.454Z,107.83
2019-02-17T05:52:53.262Z,108.57
2019-02-17T05:55:25.112Z,101.60
2019-02-17T05:57:57.355Z,103.25
2019-02-17T06:00:32.747Z,103.67
2019-02-17T06:03:04.575Z,102.97
2019-02-17T06:05:36.431Z,92.25
2019-02-17T06:08:08.804Z,89.10
2019-02-17T06:10:42.888Z,102.87
2019-02-17T06:13:16.490Z,92.13
2019-02-17T06:15:48.363Z,91.95
2019-02-17T06:18:20.262Z,99.00
2019-02-17T06:20:52.101Z,94.77
2019-02-17T06:23:24.402Z,89.97
2019-02-17T06:25:56.211Z,90.97
2019-02-17T06:28:28.061Z,87.12
2019-02-17T06:30:59.893Z,94.42
2019-02-17T06:33:31.708Z,87.55
2019-02-17T06:36:03.531Z,94.55
2019-02-17T06:38:35.756Z,90.12
2019-02-17T06:41:07.596Z,85.95
2019-02-17T06:43:39.435Z,98.55
2019-02-17T06:46:13.191Z,92.10
2019-02-17T06:48:45.109Z,100.82
2019-02-17T06:51:16.957Z,84.97
2019-02-17T06:53:48.831Z,85.87
2019-02-17T06:56:38.078Z,82.97
2019-02-17T06:59:10.609Z,90.97
2019-02-17T07:01:44.448Z,82.42
2019-02-17T07:04:16.273Z,89.42
2019-02-17T07:06:53.292Z,84.25
2019-02-17T07:09:25.151Z,80.90
2019-02-17T07:11:57.073Z,88.00
2019-02-17T07:14:28.972Z,82.43
2019-02-17T07:17:00.848Z,80.50
2019-02-17T07:19:33.074Z,85.87
2019-02-17T07:22:04.864Z,75.65
2019-02-17T07:24:36.710Z,93.07
2019-02-17T07:27:08.506Z,90.27
2019-02-17T07:29:40.537Z,82.12
2019-02-17T07:32:12.341Z,87.27
2019-02-17T07:34:44.461Z,88.00
2019-02-17T07:37:16.422Z,93.60
2019-02-17T07:39:48.278Z,84.60
2019-02-17T07:42:20.097Z,101.40
2019-02-17T07:44:51.939Z,92.63
2019-02-17T07:47:23.793Z,96.47
2019-02-17T07:49:55.655Z,105.47
2019-02-17T07:52:27.510Z,95.77
2019-02-17T07:54:59.339Z,89.47
2019-02-17T07:57:31.605Z,97.17
2019-02-17T08:00:03.488Z,88.07
2019-02-17T08:02:35.340Z,87.13
2019-02-17T08:05:07.232Z,79.77
2019-02-17T08:07:39.409Z,78.37
2019-02-17T08:10:11.375Z,76.47
2019-02-17T08:12:43.212Z,80.72
2019-02-17T08:15:15.056Z,78.97
2019-02-17T08:17:47.260Z,78.37
2019-02-17T08:20:19.062Z,81.72
2019-02-17T08:22:52.619Z,77.35
2019-02-17T08:25:24.506Z,75.92
2019-02-17T08:27:56.432Z,67.15
2019-02-17T08:30:28.321Z,67.95
2019-02-17T08:33:02.442Z,70.22
2019-02-17T08:35:34.232Z,72.37
2019-02-17T08:38:06.063Z,71.87
2019-02-17T08:40:38.340Z,78.60
2019-02-17T08:43:10.142Z,75.80
2019-02-17T08:45:41.961Z,70.20
2019-02-17T08:48:13.756Z,70.08
2019-02-17T08:50:46.292Z,75.52
2019-02-17T08:53:18.824Z,69.70
2019-02-17T08:55:50.666Z,68.12
2019-02-17T08:58:22.497Z,64.92
2019-02-17T09:00:54.492Z,68.90
2019-02-17T09:03:26.416Z,69.95
2019-02-17T09:05:58.217Z,64.47
2019-02-17T09:08:30.038Z,61.05
2019-02-17T09:11:01.940Z,58.33
2019-02-17T09:13:35.455Z,52.05
2019-02-17T09:16:08.938Z,56.83
2019-02-17T09:18:40.944Z,53.80
2019-02-17T09:21:24.245Z,48.60
2019-02-17T09:23:56.774Z,46.98
2019-02-17T09:26:43.964Z,45.75
2019-02-17T09:29:18.524Z,48.63
2019-02-17T09:31:54.003Z,45.73
2019-02-17T09:34:47.001Z,51.35
2019-02-17T09:37:25.100Z,49.58
2019-02-17T09:39:57.993Z,48.15
2019-02-17T09:42:29.959Z,48.50
2019-02-17T09:45:01.769Z,53.28
2019-02-17T09:47:33.609Z,50.23
2019-02-17T09:50:06.278Z,53.50
2019-02-17T09:52:38.208Z,57.88
2019-02-17T09:55:10.034Z,47.62
2019-02-17T10:00:22.801Z,50.65
2019-02-17T10:02:54.629Z,53.80
2019-02-17T10:05:26.611Z,56.13
2019-02-17T10:07:58.469Z,50.45
2019-02-17T10:10:32.012Z,54.93
2019-02-17T10:13:04.005Z,53.48
2019-02-17T10:15:35.818Z,54.10
2019-02-17T10:18:07.691Z,48.28
2019-02-17T10:20:39.558Z,49.50
2019-02-17T10:23:11.362Z,57.58
2019-02-17T10:25:43.220Z,50.25
2019-02-17T10:31:15.390Z,57.05
2019-02-17T10:33:47.207Z,58.60
2019-02-17T10:36:20.517Z,58.48
2019-02-17T10:38:52.305Z,56.13
2019-02-17T10:41:26.819Z,58.65
2019-02-17T10:44:07.286Z,51.90
2019-02-17T10:46:45.406Z,55.30
2019-02-17T10:49:26.576Z,49.13
2019-02-17T10:52:08.543Z,53.52
2019-02-17T10:54:41.585Z,47.25
2019-02-17T10:57:13.463Z,46.65
2019-02-17T10:59:45.262Z,52.88
2019-02-17T11:02:17.131Z,49.13
2019-02-17T11:04:50.787Z,40.90
2019-02-17T11:07:24.110Z,40.28
2019-02-17T11:09:57.117Z,42.50
2019-02-17T11:12:32.291Z,39.20
2019-02-17T11:15:04.606Z,39.05
2019-02-17T11:17:37.013Z,39.33
2019-02-17T11:20:09.065Z,34.67
2019-02-17T11:22:41.009Z,39.60
2019-02-17T11:25:13.310Z,41.15
2019-02-17T11:27:45.187Z,37.48
2019-02-17T11:30:17.375Z,31.30
2019-02-17T11:32:57.693Z,32.45
2019-02-17T11:35:24.365Z,34.13
2019-02-17T11:37:56.212Z,29.92
2019-02-17T11:40:28.074Z,34.18
2019-02-17T11:43:01.646Z,27.65
2019-02-17T11:45:33.924Z,25.80
2019-02-17T11:48:05.864Z,26.75
2019-02-17T11:50:39.050Z,27.87
2019-02-17T11:53:11.766Z,29.72
2019-02-17T11:55:43.607Z,23.70
2019-02-17T11:58:15.447Z,22.40
2019-02-17T12:00:47.343Z,17.12
2019-02-17T12:03:19.184Z,19.17
2019-02-17T12:05:52.033Z,17.67
2019-02-17T12:08:25.271Z,16.35
2019-02-17T12:10:57.270Z,21.97
2019-02-17T12:13:29.136Z,14.53
2019-02-17T12:16:00.991Z,15.80
2019-02-17T12:18:34.447Z,14.70
2019-02-17T12:21:15.436Z,15.13
2019-02-17T12:24:08.963Z,15.55
2019-02-17T12:26:49.962Z,15.53
2019-02-17T12:29:32.217Z,13.80
2019-02-17T12:32:04.026Z,11.22
2019-02-17T12:34:35.934Z,16.37
2019-02-17T12:37:07.826Z,13.13
2019-02-17T12:39:39.729Z,15.10
2019-02-17T12:42:15.553Z,13.75
2019-02-17T12:44:47.442Z,12.90
2019-02-17T12:47:19.329Z,15.85
2019-02-17T12:49:51.223Z,15.23
2019-02-17T12:52:24.410Z,13.18
2019-02-17T12:54:57.476Z,13.18
2019-02-17T12:57:29.414Z,15.80
2019-02-17T13:00:01.255Z,13.28
2019-02-17T13:02:33.084Z,12.18
2019-02-17T13:05:05.067Z,14.80
2019-02-17T13:07:37.404Z,16.48
2019-02-17T13:10:10.800Z,10.45
2019-02-17T13:12:42.705Z,14.25
2019-02-17T13:15:16.220Z,21.00
2019-02-17T13:17:48.102Z,13.88
2019-02-17T13:20:19.894Z,14.35
2019-02-17T13:22:51.734Z,15.90
2019-02-17T13:25:23.599Z,16.85
2019-02-17T13:27:55.923Z,15.32
2019-02-17T13:30:28.277Z,12.53
2019-02-17T13:33:00.140Z,14.33
2019-02-17T13:35:32.274Z,17.95
2019-02-17T13:38:04.261Z,21.37
2019-02-17T13:40:36.139Z,11.08
2019-02-17T13:43:07.995Z,11.78
2019-02-17T13:45:39.806Z,13.25
2019-02-17T13:48:11.653Z,13.75
2019-02-17T13:50:45.115Z,14.50
2019-02-17T13:53:17.070Z,15.32
2019-02-17T13:55:49.339Z,14.55
2019-02-17T13:58:21.195Z,11.57
2019-02-17T14:00:53.371Z,11.43
2019-02-17T14:03:26.548Z,14.30
2019-02-17T14:05:58.378Z,11.22
2019-02-17T14:08:31.353Z,17.12
2019-02-17T14:11:03.624Z,11.15
2019-02-17T14:13:35.546Z,10.72
2019-02-17T14:16:09.076Z,17.05
2019-02-17T14:18:40.901Z,14.95
2019-02-17T14:21:12.806Z,15.13
2019-02-17T14:23:44.635Z,12.50
2019-02-17T14:26:16.958Z,12.73
2019-02-17T14:28:48.799Z,12.03
2019-02-17T14:31:20.676Z,12.05
2019-02-17T14:33:58.502Z,15.45
2019-02-17T14:36:27.143Z,16.97
2019-02-17T14:38:59.157Z,14.90
2019-02-17T14:41:31.384Z,14.90
2019-02-17T14:44:03.260Z,19.80
2019-02-17T14:46:35.099Z,9.75
2019-02-17T14:49:08.039Z,13.40
2019-02-17T14:51:39.906Z,26.70
2019-02-17T14:54:13.704Z,18.30
2019-02-17T14:56:45.556Z,17.25
2019-02-17T14:59:17.834Z,12.70
2019-02-17T15:01:51.289Z,14.83
2019-02-17T15:04:23.148Z,13.70
2019-02-17T15:06:55.039Z,13.22
2019-02-17T15:09:27.043Z,14.07
2019-02-17T15:11:58.880Z,20.23
2019-02-17T15:14:31.496Z,13.08
2019-02-17T15:17:03.317Z,15.60
2019-02-17T15:19:35.118Z,17.37
2019-02-17T15:22:07.085Z,16.67
2019-02-17T15:24:40.599Z,13.35
2019-02-17T15:27:14.431Z,18.23
2019-02-17T15:29:48.231Z,21.77
2019-02-17T15:32:20.143Z,14.40
2019-02-17T15:34:52.003Z,19.85
2019-02-17T15:37:23.935Z,17.30
2019-02-17T15:39:55.838Z,16.30
2019-02-17T15:42:30.346Z,14.55
2019-02-17T15:45:02.230Z,23.22
2019-02-17T15:47:37.631Z,15.30
2019-02-17T15:50:10.006Z,13.28
2019-02-17T15:52:44.873Z,18.73
2019-02-17T15:55:17.042Z,21.55
2019-02-17T15:57:50.138Z,16.17
2019-02-17T16:00:21.976Z,14.55
2019-02-17T16:02:53.823Z,20.75
2019-02-17T16:05:25.629Z,15.65
2019-02-17T16:07:57.481Z,12.70
2019-02-17T16:10:32.982Z,12.53
2019-02-17T16:13:06.178Z,11.73
2019-02-17T16:15:38.029Z,16.77
2019-02-17T16:18:10.028Z,11.88
2019-02-17T16:20:42.543Z,15.88
2019-02-17T16:23:14.368Z,14.18
2019-02-17T16:25:47.589Z,13.55
2019-02-17T16:28:19.431Z,11.20
2019-02-17T16:30:53.002Z,13.28
2019-02-17T16:33:38.551Z,18.05
2019-02-17T16:37:01.544Z,19.17
2019-02-17T16:43:05.134Z,19.35
2019-02-17T16:45:37.024Z,17.17
2019-02-17T16:48:08.976Z,15.10
2019-02-17T16:50:43.666Z,10.93
2019-02-17T16:53:15.648Z,16.85
2019-02-17T16:55:47.578Z,16.48
2019-02-17T16:58:19.879Z,17.37
2019-02-17T17:00:51.840Z,14.65
2019-02-17T17:03:25.662Z,15.30
2019-02-17T17:05:58.099Z,19.95
2019-02-17T17:08:34.447Z,14.35
2019-02-17T17:11:07.339Z,17.10
2019-02-17T17:13:41.321Z,13.45
2019-02-17T17:16:13.192Z,23.25
2019-02-17T17:18:45.092Z,27.17
2019-02-17T17:21:16.994Z,24.45
2019-02-17T17:23:48.860Z,20.50
2019-02-17T17:26:21.231Z,19.27
2019-02-17T17:28:55.772Z,18.15
2019-02-17T17:31:27.942Z,21.50
2019-02-17T17:34:00.269Z,23.52
2019-02-17T17:36:33.569Z,19.85
2019-02-17T17:39:06.870Z,17.65
2019-02-17T17:41:40.199Z,22.30
2019-02-17T17:44:17.398Z,26.48
2019-02-17T17:46:49.349Z,23.92
2019-02-17T17:49:21.343Z,20.15
2019-02-17T17:51:53.213Z,18.27
2019-02-17T17:54:25.238Z,24.37
2019-02-17T17:56:59.740Z,20.32
2019-02-17T17:59:32.283Z,19.52
2019-02-17T18:02:04.882Z,18.35
2019-02-17T18:04:36.827Z,79.62
2019-02-17T18:07:08.797Z,127.45
2019-02-17T18:09:43.216Z,80.28
2019-02-17T18:12:15.921Z,55.38
2019-02-17T18:14:48.370Z,44.25
2019-02-17T18:18:51.728Z,39.20
2019-02-17T18:24:52.984Z,36.30
2019-02-17T18:27:26.025Z,23.20
2019-02-17T18:29:58.827Z,43.68
2019-02-17T18:32:30.849Z,39.58
2019-02-17T18:35:05.703Z,29.67
2019-02-17T18:37:41.489Z,30.17
2019-02-17T18:40:13.552Z,25.35
2019-02-17T18:42:48.139Z,27.82
2019-02-17T18:45:20.377Z,23.32
2019-02-17T18:47:53.315Z,23.15
2019-02-17T18:50:25.836Z,24.20
2019-02-17T18:52:57.822Z,24.50
2019-02-17T18:55:30.179Z,50.30
2019-02-17T18:58:02.155Z,54.98
2019-02-17T19:00:38.016Z,38.08
2019-02-17T19:03:10.412Z,32.65
2019-02-17T19:05:42.448Z,34.67
2019-02-17T19:08:14.737Z,30.37
2019-02-17T19:10:46.597Z,24.75
2019-02-17T19:13:19.179Z,31.15
2019-02-17T19:15:53.631Z,23.40
2019-02-17T19:18:28.979Z,32.80
2019-02-17T19:21:02.558Z,50.78
2019-02-17T19:23:34.541Z,31.33
2019-02-17T19:26:06.826Z,40.05
2019-02-17T19:28:39.967Z,45.15
2019-02-17T19:31:12.014Z,45.60
2019-02-17T19:33:44.306Z,60.92
2019-02-17T19:36:16.287Z,44.20
2019-02-17T19:38:50.865Z,43.40
2019-02-17T19:41:25.845Z,37.42
2019-02-17T19:43:58.232Z,29.25
2019-02-17T19:46:31.315Z,38.00
2019-02-17T19:49:13.653Z,40.63
2019-02-17T19:51:49.716Z,33.00
2019-02-17T19:54:23.434Z,34.65
2019-02-17T19:56:56.929Z,31.70
2019-02-17T19:59:28.920Z,33.60
2019-02-17T20:02:01.800Z,32.65
2019-02-17T20:04:43.081Z,39.48
2019-02-17T20:07:18.241Z,40.98
2019-02-17T20:09:50.302Z,50.50
2019-02-17T20:12:25.060Z,35.17
2019-02-17T20:14:57.233Z,45.33
2019-02-17T20:17:30.286Z,53.92
2019-02-17T20:20:02.719Z,61.28
2019-02-17T20:22:36.075Z,55.45
2019-02-17T20:25:09.357Z,58.17
2019-02-17T20:27:43.563Z,66.90
2019-02-17T20:30:17.820Z,52.30
2019-02-17T20:32:52.232Z,47.40
2019-02-17T20:35:24.193Z,50.12
2019-02-17T20:37:58.479Z,46.40
2019-02-17T20:40:33.840Z,64.50
2019-02-17T20:43:06.293Z,54.53
2019-02-17T20:45:43.726Z,59.88
2019-02-17T20:48:17.251Z,75.00
2019-02-17T20:50:51.185Z,65.00
2019-02-17T20:53:23.125Z,74.50
2019-02-17T20:55:56.775Z,80.60
2019-02-17T20:58:30.533Z,69.70
2019-02-17T21:01:04.366Z,68.07
2019-02-17T21:03:39.008Z,75.83
2019-02-17T21:06:13.022Z,84.40
2019-02-17T21:08:45.061Z,78.42
2019-02-17T21:11:17.154Z,67.50
2019-02-17T21:13:49.422Z,74.10
2019-02-17T21:16:29.701Z,65.32
2019-02-17T21:19:03.835Z,70.47
2019-02-17T21:21:35.831Z,65.52
2019-02-17T21:24:10.374Z,66.02
2019-02-17T21:26:42.385Z,71.02
2019-02-17T21:29:15.427Z,75.65
2019-02-17T21:31:47.449Z,77.15
2019-02-17T21:34:19.455Z,84.97
2019-02-17T21:36:53.211Z,83.92
2019-02-17T21:39:29.881Z,81.70
2019-02-17T21:42:02.153Z,70.05
2019-02-17T21:44:34.226Z,73.35
2019-02-17T21:47:07.963Z,71.25
2019-02-17T21:49:40.362Z,63.30
2019-02-17T21:52:12.768Z,69.90
2019-02-17T21:54:45.100Z,53.50
2019-02-17T21:57:19.295Z,68.47
2019-02-17T21:59:52.368Z,66.02
2019-02-17T22:02:27.041Z,82.02
2019-02-17T22:05:03.396Z,80.15
2019-02-17T22:07:35.472Z,84.40
2019-02-17T22:10:09.775Z,78.42
2019-02-17T22:12:41.743Z,65.72
2019-02-17T22:15:15.265Z,60.40
2019-02-17T22:17:47.620Z,66.28
2019-02-17T22:20:19.553Z,71.12
2019-02-17T22:22:51.516Z,66.60
2019-02-17T22:25:23.495Z,66.62
2019-02-17T22:27:56.254Z,73.67
2019-02-17T22:30:28.307Z,68.55
2019-02-17T22:33:02.348Z,73.83
2019-02-17T22:35:47.886Z,79.20
2019-02-17T22:38:19.904Z,69.17
2019-02-17T22:40:51.843Z,74.72
2019-02-17T22:43:23.747Z,88.27
2019-02-17T22:45:55.743Z,75.10
2019-02-17T22:48:27.636Z,81.53
2019-02-17T22:50:59.657Z,82.12
2019-02-17T22:53:31.601Z,87.97
2019-02-17T22:56:04.637Z,76.47
2019-02-17T22:58:36.512Z,76.67
2019-02-17T23:01:11.091Z,92.70
2019-02-17T23:03:43.780Z,90.28
2019-02-17T23:06:16.794Z,84.87
2019-02-17T23:08:48.833Z,81.97
2019-02-17T23:11:20.975Z,78.42
2019-02-17T23:13:53.992Z,74.10
2019-02-17T23:16:25.988Z,77.87
2019-02-17T23:18:57.877Z,69.97
2019-02-17T23:21:29.816Z,78.12
2019-02-17T23:24:02.131Z,83.85
2019-02-17T23:26:34.030Z,69.77
2019-02-17T23:29:06.112Z,63.78
2019-02-17T23:31:39.095Z,78.87
2019-02-17T23:34:11.205Z,72.00
2019-02-17T23:36:44.898Z,65.57
2019-02-17T23:39:17.733Z,61.08
2019-02-17T23:41:49.594Z,70.78
2019-02-17T23:44:21.514Z,60.10
2019-02-17T23:46:53.410Z,67.58
2019-02-17T23:49:25.299Z,61.05
2019-02-17T23:51:57.803Z,57.88
2019-02-17T23:54:29.716Z,61.08
2019-02-17T23:57:01.719Z,63.17
2019-02-17T23:59:33.583Z,58.02
